createdAt,value
2018-04-14T00:01:43.288Z,11.20
2018-04-14T00:03:44.382Z,11.10
2018-04-14T00:05:58.407Z,11.10
2018-04-14T00:08:07.944Z,11.10
2018-04-14T00:10:09.262Z,11.10
2018-04-14T00:12:11.535Z,11.10
2018-04-14T00:14:12.952Z,11.10
2018-04-14T00:16:35.327Z,11.10
2018-04-14T00:20:52.942Z,11.00
2018-04-14T00:23:00.163Z,11.00
2018-04-14T00:25:01.440Z,11.00
2018-04-14T00:27:09.357Z,11.00
2018-04-14T00:36:45.001Z,10.90
2018-04-14T00:38:46.145Z,10.90
2018-04-14T00:40:47.794Z,10.90
2018-04-14T00:42:49.803Z,10.90
2018-04-14T00:44:50.845Z,10.90
2018-04-14T00:46:51.828Z,10.90
2018-04-14T00:48:53.181Z,10.90
2018-04-14T00:51:06.389Z,10.80
2018-04-14T00:53:20.140Z,10.80
2018-04-14T00:55:41.796Z,10.80
2018-04-14T00:57:43.121Z,10.80
2018-04-14T00:59:51.572Z,10.80
2018-04-14T01:04:17.214Z,10.70
2018-04-14T01:12:42.350Z,10.70
2018-04-14T01:14:43.503Z,10.80
2018-04-14T01:16:44.804Z,10.70
2018-04-14T01:21:25.498Z,10.70
2018-04-14T01:23:26.770Z,10.70
2018-04-14T01:25:27.942Z,10.80
2018-04-14T01:27:29.210Z,10.70
2018-04-14T01:29:30.306Z,10.70
2018-04-14T01:31:31.487Z,10.70
2018-04-14T01:33:41.249Z,10.70
2018-04-14T01:38:10.106Z,10.70
2018-04-14T01:40:12.003Z,10.60
2018-04-14T01:42:30.714Z,10.60
2018-04-14T01:47:09.993Z,10.60
2018-04-14T01:49:11.096Z,10.60
2018-04-14T01:51:12.323Z,10.60
2018-04-14T01:53:13.347Z,10.60
2018-04-14T01:57:46.348Z,10.50
2018-04-14T01:59:48.018Z,10.50
2018-04-14T02:01:49.153Z,10.50
2018-04-14T02:03:50.236Z,10.50
2018-04-14T02:05:52.763Z,10.50
2018-04-14T02:07:54.822Z,10.50
2018-04-14T02:09:56.059Z,10.50
2018-04-14T02:12:17.059Z,10.50
2018-04-14T02:14:44.188Z,10.40
2018-04-14T02:16:45.578Z,10.40
2018-04-14T02:19:16.023Z,10.40
2018-04-14T02:21:17.370Z,10.40
2018-04-14T02:25:56.903Z,10.40
2018-04-14T02:30:30.971Z,10.40
2018-04-14T02:35:00.319Z,10.40
2018-04-14T02:42:16.441Z,10.40
2018-04-14T02:44:17.432Z,10.40
2018-04-14T02:46:27.325Z,10.40
2018-04-14T02:48:30.626Z,10.40
2018-04-14T02:50:31.829Z,10.40
2018-04-14T02:52:47.997Z,10.40
2018-04-14T02:54:49.125Z,10.40
2018-04-14T03:01:55.703Z,10.30
2018-04-14T03:03:56.858Z,10.30
2018-04-14T03:05:58.855Z,10.30
2018-04-14T03:10:35.130Z,10.30
2018-04-14T03:12:46.401Z,10.30
2018-04-14T03:14:47.430Z,10.30
2018-04-14T03:16:48.533Z,10.30
2018-04-14T03:18:50.110Z,10.30
2018-04-14T03:20:51.563Z,10.30
2018-04-14T03:22:52.739Z,10.30
2018-04-14T03:24:53.992Z,10.30
2018-04-14T03:29:46.354Z,10.30
2018-04-14T03:31:48.571Z,10.30
2018-04-14T03:33:49.939Z,10.30
2018-04-14T03:35:51.036Z,10.30
2018-04-14T03:38:13.817Z,10.30
2018-04-14T03:40:15.598Z,10.30
2018-04-14T03:42:16.870Z,10.30
2018-04-14T03:44:18.005Z,10.30
2018-04-14T03:46:19.164Z,10.30
2018-04-14T03:50:58.899Z,10.30
2018-04-14T03:55:28.035Z,10.30
2018-04-14T03:57:29.209Z,10.30
2018-04-14T03:59:31.082Z,10.30
2018-04-14T04:06:41.908Z,10.20
2018-04-14T04:11:19.858Z,10.30
2018-04-14T04:13:20.977Z,10.20
2018-04-14T04:15:21.987Z,10.20
2018-04-14T04:17:23.354Z,10.20
2018-04-14T04:19:37.000Z,10.20
2018-04-14T04:21:51.362Z,10.20
2018-04-14T04:26:30.703Z,10.20
2018-04-14T04:28:36.034Z,10.20
2018-04-14T04:30:37.603Z,10.20
2018-04-14T04:32:39.070Z,10.20
2018-04-14T04:34:40.475Z,10.20
2018-04-14T04:36:41.602Z,10.20
2018-04-14T04:41:37.987Z,10.20
2018-04-14T04:46:06.624Z,10.20
2018-04-14T04:48:08.001Z,10.20
2018-04-14T04:55:30.790Z,10.20
2018-04-14T04:57:32.948Z,10.30
2018-04-14T04:59:34.190Z,10.30
2018-04-14T05:01:35.386Z,10.30
2018-04-14T05:03:36.618Z,10.30
2018-04-14T05:08:22.770Z,10.30
2018-04-14T05:10:23.759Z,10.30
2018-04-14T05:12:24.874Z,10.30
2018-04-14T05:14:26.660Z,10.30
2018-04-14T05:18:53.120Z,10.30
2018-04-14T05:23:35.934Z,10.40
2018-04-14T05:28:34.122Z,10.40
2018-04-14T05:30:41.554Z,10.40
2018-04-14T05:32:42.802Z,10.40
2018-04-14T05:34:44.948Z,10.40
2018-04-14T05:36:47.205Z,10.40
2018-04-14T05:41:26.200Z,10.40
2018-04-14T05:43:47.155Z,10.50
2018-04-14T05:48:16.947Z,10.50
2018-04-14T05:50:18.065Z,10.50
2018-04-14T05:54:44.163Z,10.60
2018-04-14T05:56:45.267Z,10.60
2018-04-14T05:58:46.547Z,10.70
2018-04-14T06:00:47.680Z,10.70
2018-04-14T06:02:48.871Z,10.70
2018-04-14T06:04:50.163Z,10.80
2018-04-14T06:06:51.310Z,10.80
2018-04-14T06:08:52.355Z,10.90
2018-04-14T06:10:53.725Z,10.90
2018-04-14T06:12:54.825Z,10.90
2018-04-14T06:14:55.991Z,10.90
2018-04-14T06:16:57.067Z,10.90
2018-04-14T06:18:58.150Z,10.90
2018-04-14T06:20:59.226Z,11.00
2018-04-14T06:23:00.259Z,11.00
2018-04-14T06:25:01.312Z,11.10
2018-04-14T06:27:03.503Z,11.10
2018-04-14T06:29:04.666Z,11.20
2018-04-14T06:31:05.803Z,11.20
2018-04-14T06:33:06.870Z,11.30
2018-04-14T06:35:07.969Z,11.30
2018-04-14T06:37:13.799Z,11.50
2018-04-14T06:39:14.987Z,11.40
2018-04-14T06:41:16.089Z,11.50
2018-04-14T06:43:17.236Z,11.50
2018-04-14T06:45:19.099Z,11.50
2018-04-14T06:47:20.258Z,11.50
2018-04-14T06:49:21.304Z,11.60
2018-04-14T06:51:22.465Z,11.70
2018-04-14T06:53:23.508Z,11.70
2018-04-14T06:55:24.594Z,11.70
2018-04-14T06:57:26.223Z,11.80
2018-04-14T06:59:27.480Z,11.90
2018-04-14T07:01:28.525Z,11.90
2018-04-14T07:03:29.642Z,12.00
2018-04-14T07:05:30.718Z,11.80
2018-04-14T07:07:32.453Z,11.80
2018-04-14T07:09:34.023Z,11.70
2018-04-14T07:11:35.856Z,11.70
2018-04-14T07:16:15.077Z,11.60
2018-04-14T07:20:28.374Z,11.60
2018-04-14T07:22:29.386Z,11.70
2018-04-14T07:24:30.623Z,11.90
2018-04-14T07:26:34.699Z,12.10
2018-04-14T07:28:35.907Z,12.20
2018-04-14T07:30:37.375Z,12.20
2018-04-14T07:32:38.577Z,12.10
2018-04-14T07:34:39.770Z,12.20
2018-04-14T07:36:41.288Z,12.20
2018-04-14T07:38:42.422Z,12.30
2018-04-14T07:40:43.471Z,12.60
2018-04-14T07:42:44.967Z,12.40
2018-04-14T07:44:46.504Z,12.90
2018-04-14T07:46:47.667Z,13.00
2018-04-14T07:48:48.797Z,13.10
2018-04-14T07:50:49.816Z,13.30
2018-04-14T07:52:50.896Z,13.10
2018-04-14T07:54:52.141Z,13.40
2018-04-14T07:56:53.259Z,13.30
2018-04-14T07:58:54.422Z,13.40
2018-04-14T08:00:55.527Z,13.60
2018-04-14T08:02:56.733Z,13.80
2018-04-14T08:04:57.931Z,13.30
2018-04-14T08:07:00.097Z,13.30
2018-04-14T08:09:01.219Z,13.30
2018-04-14T08:11:02.838Z,13.30
2018-04-14T08:13:04.070Z,13.60
2018-04-14T08:15:05.155Z,13.50
2018-04-14T08:17:06.297Z,13.80
2018-04-14T08:19:12.729Z,14.00
2018-04-14T08:21:13.914Z,14.20
2018-04-14T08:23:16.591Z,14.10
2018-04-14T08:25:17.929Z,13.70
2018-04-14T08:27:19.100Z,13.60
2018-04-14T08:29:20.131Z,13.60
2018-04-14T08:31:22.068Z,14.10
2018-04-14T08:33:23.419Z,14.40
2018-04-14T08:35:24.831Z,14.50
2018-04-14T08:37:26.413Z,14.10
2018-04-14T08:39:27.608Z,14.50
2018-04-14T08:41:28.885Z,14.90
2018-04-14T08:43:30.286Z,15.00
2018-04-14T08:45:31.586Z,14.90
2018-04-14T08:47:33.022Z,15.40
2018-04-14T08:49:34.631Z,15.50
2018-04-14T08:51:35.834Z,15.90
2018-04-14T08:53:37.017Z,15.90
2018-04-14T08:55:38.141Z,15.30
2018-04-14T08:57:39.247Z,15.10
2018-04-14T08:59:40.297Z,14.80
2018-04-14T09:01:41.324Z,14.60
2018-04-14T09:03:42.517Z,14.90
2018-04-14T09:05:43.579Z,14.40
2018-04-14T09:07:46.390Z,14.20
2018-04-14T09:09:47.440Z,13.90
2018-04-14T09:11:48.664Z,13.50
2018-04-14T09:13:50.220Z,13.40
2018-04-14T09:15:51.681Z,13.40
2018-04-14T09:17:52.883Z,13.10
2018-04-14T09:19:54.069Z,12.90
2018-04-14T09:21:55.316Z,12.80
2018-04-14T09:23:56.410Z,12.70
2018-04-14T09:25:57.431Z,12.60
2018-04-14T09:27:58.446Z,12.60
2018-04-14T09:29:59.435Z,12.70
2018-04-14T09:32:00.410Z,12.70
2018-04-14T09:34:01.407Z,12.80
2018-04-14T09:36:02.428Z,12.80
2018-04-14T09:38:03.511Z,13.00
2018-04-14T09:40:04.490Z,13.20
2018-04-14T09:42:05.502Z,13.30
2018-04-14T09:44:06.482Z,13.70
2018-04-14T09:46:07.660Z,13.80
2018-04-14T09:48:08.964Z,13.70
2018-04-14T09:50:10.090Z,14.00
2018-04-14T09:52:11.308Z,14.70
2018-04-14T09:54:12.576Z,15.30
2018-04-14T09:56:13.614Z,15.00
2018-04-14T09:58:14.647Z,14.90
2018-04-14T10:00:26.691Z,14.40
2018-04-14T10:02:45.564Z,14.40
2018-04-14T10:04:46.742Z,14.10
2018-04-14T10:06:47.706Z,14.10
2018-04-14T10:08:48.839Z,14.50
2018-04-14T10:10:49.871Z,14.50
2018-04-14T10:12:50.911Z,15.10
2018-04-14T10:14:51.964Z,15.00
2018-04-14T10:16:52.994Z,15.10
2018-04-14T10:18:54.086Z,15.10
2018-04-14T10:20:55.141Z,15.00
2018-04-14T10:22:56.142Z,15.80
2018-04-14T10:24:57.137Z,15.80
2018-04-14T10:26:58.222Z,15.90
2018-04-14T10:28:59.260Z,16.80
2018-04-14T10:31:00.399Z,16.20
2018-04-14T10:33:01.566Z,16.30
2018-04-14T10:35:02.617Z,16.50
2018-04-14T10:37:03.673Z,16.20
2018-04-14T10:39:04.855Z,15.70
2018-04-14T10:41:05.843Z,15.40
2018-04-14T10:43:06.864Z,15.30
2018-04-14T10:45:07.955Z,15.40
2018-04-14T10:47:09.006Z,15.20
2018-04-14T10:49:10.096Z,14.90
2018-04-14T10:51:11.277Z,15.40
2018-04-14T10:53:12.327Z,16.10
2018-04-14T10:55:13.567Z,15.90
2018-04-14T10:57:14.673Z,16.00
2018-04-14T10:59:15.672Z,15.70
2018-04-14T11:01:16.781Z,15.70
2018-04-14T11:03:17.774Z,15.90
2018-04-14T11:05:18.848Z,15.90
2018-04-14T11:07:19.942Z,16.10
2018-04-14T11:09:21.001Z,16.60
2018-04-14T11:11:22.597Z,16.30
2018-04-14T11:13:23.659Z,16.20
2018-04-14T11:15:24.686Z,15.70
2018-04-14T11:17:25.797Z,15.70
2018-04-14T11:19:26.838Z,15.80
2018-04-14T11:21:27.864Z,15.50
2018-04-14T11:23:29.384Z,15.20
2018-04-14T11:25:30.487Z,15.40
2018-04-14T11:27:31.531Z,16.00
2018-04-14T11:29:32.687Z,16.30
2018-04-14T11:31:34.291Z,16.40
2018-04-14T11:33:35.665Z,15.80
2018-04-14T11:35:40.340Z,16.20
2018-04-14T11:37:41.493Z,17.20
2018-04-14T11:39:43.032Z,16.60
2018-04-14T11:41:44.197Z,16.30
2018-04-14T11:43:45.489Z,16.30
2018-04-14T11:45:46.700Z,16.60
2018-04-14T11:47:48.075Z,16.60
2018-04-14T11:49:49.223Z,17.00
2018-04-14T11:51:50.279Z,16.80
2018-04-14T11:53:51.648Z,17.80
2018-04-14T11:55:52.721Z,18.70
2018-04-14T11:57:54.385Z,18.00
2018-04-14T11:59:55.482Z,18.20
2018-04-14T12:01:56.873Z,18.80
2018-04-14T12:03:58.316Z,19.10
2018-04-14T12:05:59.500Z,19.10
2018-04-14T12:08:00.576Z,19.20
2018-04-14T12:10:02.546Z,18.50
2018-04-14T12:12:03.757Z,18.80
2018-04-14T12:14:05.015Z,18.60
2018-04-14T12:16:06.389Z,18.70
2018-04-14T12:18:07.579Z,18.40
2018-04-14T12:20:08.661Z,18.80
2018-04-14T12:22:09.925Z,17.90
2018-04-14T12:24:10.993Z,19.00
2018-04-14T12:26:11.974Z,19.30
2018-04-14T12:28:13.008Z,19.00
2018-04-14T12:30:14.156Z,18.20
2018-04-14T12:32:15.197Z,18.80
2018-04-14T12:34:17.266Z,19.30
2018-04-14T12:36:18.369Z,19.40
2018-04-14T12:38:19.362Z,19.90
2018-04-14T12:40:20.469Z,19.70
2018-04-14T12:42:22.415Z,19.50
2018-04-14T12:44:23.461Z,19.60
2018-04-14T12:46:24.562Z,19.20
2018-04-14T12:48:25.646Z,19.80
2018-04-14T12:50:26.657Z,19.80
2018-04-14T12:52:27.691Z,19.30
2018-04-14T12:54:29.574Z,19.80
2018-04-14T12:56:30.595Z,19.80
2018-04-14T12:58:32.521Z,19.90
2018-04-14T13:00:33.563Z,19.90
2018-04-14T13:02:34.576Z,19.60
2018-04-14T13:04:35.863Z,19.50
2018-04-14T13:06:36.905Z,19.80
2018-04-14T13:08:38.036Z,19.20
2018-04-14T13:10:39.096Z,19.20
2018-04-14T13:12:40.223Z,19.40
2018-04-14T13:14:41.462Z,19.20
2018-04-14T13:16:42.678Z,19.40
2018-04-14T13:18:43.695Z,20.30
2018-04-14T13:20:44.843Z,20.50
2018-04-14T13:22:45.948Z,20.80
2018-04-14T13:24:47.838Z,19.80
2018-04-14T13:26:48.883Z,19.70
2018-04-14T13:28:49.911Z,19.40
2018-04-14T13:30:50.981Z,19.40
2018-04-14T13:32:52.010Z,20.10
2018-04-14T13:34:53.096Z,19.80
2018-04-14T13:36:54.125Z,19.70
2018-04-14T13:38:55.121Z,20.20
2018-04-14T13:40:56.152Z,20.20
2018-04-14T13:42:57.184Z,20.50
2018-04-14T13:44:58.179Z,20.10
2018-04-14T13:46:59.183Z,20.40
2018-04-14T13:49:00.223Z,20.50
2018-04-14T13:51:01.215Z,20.60
2018-04-14T13:53:02.302Z,20.80
2018-04-14T13:55:03.302Z,21.20
2018-04-14T13:57:04.393Z,21.20
2018-04-14T13:59:05.358Z,20.70
2018-04-14T14:01:06.371Z,20.10
2018-04-14T14:03:07.333Z,19.70
2018-04-14T14:05:08.319Z,19.90
2018-04-14T14:07:09.332Z,19.50
2018-04-14T14:09:10.407Z,19.90
2018-04-14T14:11:11.501Z,20.00
2018-04-14T14:13:12.489Z,19.60
2018-04-14T14:15:13.537Z,19.60
2018-04-14T14:17:14.601Z,19.30
2018-04-14T14:19:15.643Z,19.70
2018-04-14T14:21:16.679Z,19.20
2018-04-14T14:23:17.756Z,19.00
2018-04-14T14:25:18.793Z,18.70
2018-04-14T14:27:19.815Z,18.40
2018-04-14T14:29:20.790Z,18.40
2018-04-14T14:31:21.905Z,18.00
2018-04-14T14:33:23.021Z,17.70
2018-04-14T14:35:24.162Z,17.40
2018-04-14T14:37:25.248Z,17.30
2018-04-14T14:39:26.251Z,17.30
2018-04-14T14:41:27.444Z,17.20
2018-04-14T14:43:28.434Z,17.10
2018-04-14T14:45:29.520Z,17.10
2018-04-14T14:47:36.664Z,17.30
2018-04-14T14:49:37.704Z,17.60
2018-04-14T14:51:38.751Z,17.90
2018-04-14T14:53:39.755Z,18.20
2018-04-14T14:55:40.868Z,18.00
2018-04-14T14:57:41.883Z,17.70
2018-04-14T14:59:42.960Z,17.70
2018-04-14T15:01:44.053Z,17.60
2018-04-14T15:03:45.067Z,17.40
2018-04-14T15:05:46.177Z,17.00
2018-04-14T15:07:48.040Z,17.00
2018-04-14T15:09:49.075Z,16.90
2018-04-14T15:11:50.101Z,17.00
2018-04-14T15:13:51.137Z,17.20
2018-04-14T15:15:52.160Z,17.10
2018-04-14T15:17:53.202Z,17.10
2018-04-14T15:19:54.199Z,17.10
2018-04-14T15:21:55.269Z,17.20
2018-04-14T15:23:56.261Z,17.50
2018-04-14T15:25:57.344Z,17.70
2018-04-14T15:27:58.401Z,17.60
2018-04-14T15:29:59.440Z,17.50
2018-04-14T15:32:00.488Z,17.70
2018-04-14T15:34:01.492Z,17.40
2018-04-14T15:36:02.546Z,17.50
2018-04-14T15:38:03.572Z,17.50
2018-04-14T15:40:04.608Z,17.50
2018-04-14T15:42:06.413Z,17.40
2018-04-14T15:44:07.441Z,17.40
2018-04-14T15:46:08.481Z,17.30
2018-04-14T15:48:09.579Z,17.20
2018-04-14T15:50:10.733Z,17.20
2018-04-14T15:52:11.727Z,17.10
2018-04-14T15:54:12.859Z,17.00
2018-04-14T15:56:13.912Z,16.90
2018-04-14T15:58:15.734Z,17.00
2018-04-14T16:00:17.038Z,17.00
2018-04-14T16:02:18.110Z,16.90
2018-04-14T16:04:19.116Z,16.90
2018-04-14T16:06:20.927Z,16.60
2018-04-14T16:08:21.948Z,16.60
2018-04-14T16:10:23.078Z,16.50
2018-04-14T16:12:24.087Z,16.30
2018-04-14T16:14:25.118Z,16.30
2018-04-14T16:16:26.202Z,16.30
2018-04-14T16:18:27.198Z,16.20
2018-04-14T16:20:28.245Z,16.20
2018-04-14T16:22:29.336Z,16.10
2018-04-14T16:24:30.391Z,16.00
2018-04-14T16:26:31.399Z,16.10
2018-04-14T16:28:32.382Z,16.10
2018-04-14T16:30:33.353Z,16.00
2018-04-14T16:32:34.673Z,15.80
2018-04-14T16:34:36.673Z,15.70
2018-04-14T16:36:37.748Z,15.50
2018-04-14T16:38:38.843Z,15.40
2018-04-14T16:40:39.944Z,15.20
2018-04-14T16:42:40.923Z,15.10
2018-04-14T16:44:42.006Z,15.00
2018-04-14T16:46:43.803Z,14.80
2018-04-14T16:48:44.789Z,14.70
2018-04-14T16:50:45.863Z,14.60
2018-04-14T16:52:47.629Z,14.60
2018-04-14T16:54:48.654Z,14.60
2018-04-14T16:56:49.684Z,14.50
2018-04-14T16:58:50.676Z,14.40
2018-04-14T17:00:51.782Z,14.40
2018-04-14T17:02:52.775Z,14.40
2018-04-14T17:04:53.865Z,14.40
2018-04-14T17:06:54.907Z,14.40
2018-04-14T17:08:55.887Z,14.40
2018-04-14T17:10:56.919Z,14.40
2018-04-14T17:12:58.080Z,14.30
2018-04-14T17:14:59.066Z,14.20
2018-04-14T17:17:00.090Z,14.10
2018-04-14T17:19:01.231Z,14.00
2018-04-14T17:21:02.360Z,14.00
2018-04-14T17:23:03.466Z,14.00
2018-04-14T17:25:05.341Z,13.80
2018-04-14T17:27:06.384Z,13.80
2018-04-14T17:29:07.481Z,13.70
2018-04-14T17:31:08.718Z,13.70
2018-04-14T17:33:09.771Z,13.60
2018-04-14T17:35:10.799Z,13.60
2018-04-14T17:37:11.946Z,13.50
2018-04-14T17:39:13.968Z,13.60
2018-04-14T17:41:15.079Z,13.50
2018-04-14T17:43:16.203Z,13.40
2018-04-14T17:45:17.248Z,13.40
2018-04-14T17:47:18.277Z,13.40
2018-04-14T17:49:19.252Z,13.30
2018-04-14T17:51:21.011Z,13.30
2018-04-14T17:53:22.029Z,13.20
2018-04-14T17:55:23.033Z,13.20
2018-04-14T17:57:24.144Z,13.10
2018-04-14T17:59:25.978Z,13.00
2018-04-14T18:01:27.001Z,13.00
2018-04-14T18:03:28.010Z,13.00
2018-04-14T18:05:29.078Z,13.00
2018-04-14T18:07:30.132Z,13.00
2018-04-14T18:09:31.185Z,13.00
2018-04-14T18:11:32.293Z,13.00
2018-04-14T18:13:33.417Z,13.00
2018-04-14T18:15:34.522Z,13.00
2018-04-14T18:17:37.764Z,12.90
2018-04-14T18:19:39.692Z,12.90
2018-04-14T18:21:40.762Z,12.90
2018-04-14T18:23:41.802Z,12.90
2018-04-14T18:25:42.814Z,12.90
2018-04-14T18:27:43.839Z,12.80
2018-04-14T18:29:44.875Z,12.80
2018-04-14T18:31:45.894Z,12.70
2018-04-14T18:33:46.861Z,12.60
2018-04-14T18:35:48.334Z,12.60
2018-04-14T18:37:49.371Z,12.60
2018-04-14T18:39:50.612Z,12.50
2018-04-14T18:41:51.786Z,12.40
2018-04-14T18:43:53.111Z,12.30
2018-04-14T18:45:54.169Z,12.20
2018-04-14T18:47:55.246Z,12.10
2018-04-14T18:49:58.538Z,12.00
2018-04-14T18:52:00.976Z,12.00
2018-04-14T18:54:02.918Z,12.10
2018-04-14T18:56:04.493Z,12.10
2018-04-14T18:58:05.651Z,12.00
2018-04-14T19:00:06.711Z,12.00
2018-04-14T19:02:07.729Z,12.00
2018-04-14T19:04:08.860Z,12.00
2018-04-14T19:06:09.853Z,11.90
2018-04-14T19:08:10.904Z,11.50
2018-04-14T19:10:12.007Z,11.50
2018-04-14T19:12:13.022Z,11.40
2018-04-14T19:14:14.125Z,11.40
2018-04-14T19:16:15.280Z,11.40
2018-04-14T19:18:17.426Z,11.50
2018-04-14T19:20:18.446Z,11.60
2018-04-14T19:22:19.472Z,11.60
2018-04-14T19:24:20.602Z,11.60
2018-04-14T19:26:21.640Z,11.60
2018-04-14T19:28:24.403Z,11.50
2018-04-14T19:30:25.714Z,11.40
2018-04-14T19:32:28.899Z,11.30
2018-04-14T19:34:30.599Z,11.10
2018-04-14T19:36:32.821Z,11.20
2018-04-14T19:38:36.298Z,11.20
2018-04-14T19:40:38.066Z,11.10
2018-04-14T19:42:39.684Z,11.00
2018-04-14T19:44:40.671Z,11.00
2018-04-14T19:46:41.690Z,11.00
2018-04-14T19:48:42.797Z,10.90
2018-04-14T19:50:44.947Z,10.90
2018-04-14T19:52:46.039Z,10.90
2018-04-14T19:54:49.485Z,10.90
2018-04-14T19:56:51.123Z,10.80
2018-04-14T19:58:53.456Z,10.80
2018-04-14T20:00:54.493Z,10.80
2018-04-14T20:02:59.195Z,10.70
2018-04-14T20:05:01.927Z,10.70
2018-04-14T20:07:03.110Z,10.70
2018-04-14T20:09:05.073Z,10.80
2018-04-14T20:11:06.195Z,10.70
2018-04-14T20:13:08.564Z,10.80
2018-04-14T20:15:10.388Z,10.70
2018-04-14T20:17:14.170Z,10.70
2018-04-14T20:19:16.231Z,10.70
2018-04-14T20:21:17.705Z,10.60
2018-04-14T20:23:18.739Z,10.50
2018-04-14T20:25:19.824Z,10.50
2018-04-14T20:27:21.175Z,10.50
2018-04-14T20:29:22.374Z,10.50
2018-04-14T20:31:23.520Z,10.60
2018-04-14T20:33:25.745Z,10.60
2018-04-14T20:35:27.091Z,10.60
2018-04-14T20:37:28.136Z,10.50
2018-04-14T20:39:29.569Z,10.40
2018-04-14T20:41:30.623Z,10.30
2018-04-14T20:43:35.050Z,10.20
2018-04-14T20:45:36.788Z,10.10
2018-04-14T20:47:38.196Z,10.10
2018-04-14T20:49:41.090Z,10.20
2018-04-14T20:51:42.998Z,10.20
2018-04-14T20:53:49.420Z,10.30
2018-04-14T20:55:51.297Z,10.20
2018-04-14T20:57:52.460Z,10.20
2018-04-14T20:59:53.904Z,10.20
2018-04-14T21:01:56.870Z,10.20
2018-04-14T21:03:58.037Z,10.20
2018-04-14T21:06:33.097Z,10.30
2018-04-14T21:08:34.229Z,10.20
2018-04-14T21:10:35.498Z,10.10
2018-04-14T21:12:37.910Z,10.20
2018-04-14T21:14:38.983Z,10.20
2018-04-14T21:16:42.479Z,10.30
2018-04-14T21:18:44.167Z,10.30
2018-04-14T21:20:47.150Z,10.30
2018-04-14T21:22:48.211Z,10.30
2018-04-14T21:24:49.785Z,10.30
2018-04-14T21:26:53.350Z,10.30
2018-04-14T21:29:00.528Z,10.20
2018-04-14T21:31:01.781Z,10.20
2018-04-14T21:33:02.801Z,10.20
2018-04-14T21:35:07.127Z,10.30
2018-04-14T21:37:08.257Z,10.30
2018-04-14T21:39:09.299Z,10.30
2018-04-14T21:41:11.870Z,10.30
2018-04-14T21:43:13.131Z,10.30
2018-04-14T21:45:14.144Z,10.30
2018-04-14T21:47:16.436Z,10.30
2018-04-14T21:49:17.490Z,10.20
2018-04-14T21:51:18.574Z,10.10
2018-04-14T21:53:19.568Z,10.10
2018-04-14T21:55:21.655Z,10.10
2018-04-14T21:57:23.062Z,10.10
2018-04-14T21:59:29.647Z,10.10
2018-04-14T22:01:30.716Z,10.10
2018-04-14T22:03:32.191Z,10.10
2018-04-14T22:05:34.339Z,10.00
2018-04-14T22:07:35.876Z,10.10
2018-04-14T22:09:38.135Z,10.00
2018-04-14T22:11:41.714Z,9.80
2018-04-14T22:15:55.865Z,9.80
2018-04-14T22:17:56.881Z,9.90
2018-04-14T22:20:05.089Z,9.80
2018-04-14T22:24:44.087Z,9.80
2018-04-14T22:26:45.107Z,9.70
2018-04-14T22:28:48.734Z,9.70
2018-04-14T22:30:49.883Z,9.70
2018-04-14T22:32:52.258Z,9.60
2018-04-14T22:34:53.315Z,9.60
2018-04-14T22:36:54.332Z,9.60
2018-04-14T22:38:55.314Z,9.60
2018-04-14T22:41:09.940Z,9.60
2018-04-14T22:43:10.932Z,9.50
2018-04-14T22:45:12.918Z,9.50
2018-04-14T22:47:13.972Z,9.50
2018-04-14T22:49:21.663Z,9.40
2018-04-14T22:51:22.775Z,9.40
2018-04-14T22:53:24.759Z,9.30
2018-04-14T22:55:26.072Z,9.30
2018-04-14T22:57:30.488Z,9.30
2018-04-14T22:59:31.984Z,9.30
2018-04-14T23:01:33.683Z,9.40
2018-04-14T23:03:35.138Z,9.40
2018-04-14T23:05:36.707Z,9.30
2018-04-14T23:07:37.871Z,9.30
2018-04-14T23:09:39.377Z,9.40
2018-04-14T23:11:40.459Z,9.30
2018-04-14T23:13:41.559Z,9.20
2018-04-14T23:15:42.508Z,9.20
2018-04-14T23:17:43.759Z,9.30
2018-04-14T23:19:48.932Z,9.30
2018-04-14T23:21:50.060Z,9.40
2018-04-14T23:23:51.199Z,9.40
2018-04-14T23:25:52.304Z,9.40
2018-04-14T23:27:53.311Z,9.30
2018-04-14T23:29:54.396Z,9.30
2018-04-14T23:31:55.605Z,9.20
2018-04-14T23:33:56.606Z,9.20
2018-04-14T23:35:57.670Z,9.20
2018-04-14T23:38:00.254Z,9.10
2018-04-14T23:40:02.483Z,9.10
2018-04-14T23:42:03.723Z,9.10
2018-04-14T23:44:05.051Z,9.20
2018-04-14T23:46:06.142Z,9.20
2018-04-14T23:48:11.335Z,9.30
2018-04-14T23:50:14.372Z,9.30
2018-04-14T23:52:15.456Z,9.30
2018-04-14T23:56:52.142Z,9.30
2018-04-14T23:58:53.361Z,9.30
